Time;durP1;ratioP1;P1;durP2;ratioP2;P2;SDS_P1;SDS_P2;PMS_P1;PMS_P2;Temp;Humidity;BMP_temperature;BMP_pressure;BME280_temperature;BME280_humidity;BME280_pressure;Samples;Min_cycle;Max_cycle;Signal;HPM_P1;HPM_P2
2022/09/26 00:02:06;;;;;;;1.42;1.33;;;;;;;;;;5064261;28;20026;-39
2022/09/26 00:04:32;;;;;;;1.70;1.60;;;;;;;;;;5063911;28;20494;-39
2022/09/26 00:06:58;;;;;;;1.60;1.50;;;;;;;;;;5064597;28;20028;-39
2022/09/26 00:09:25;;;;;;;1.67;1.58;;;;;;;;;;5063400;28;20039;-39
2022/09/26 00:11:51;;;;;;;1.38;1.27;;;;;;;;;;5064894;28;20645;-40
2022/09/26 00:14:18;;;;;;;1.67;1.58;;;;;;;;;;5064954;28;20021;-39
2022/09/26 00:16:45;;;;;;;1.27;1.17;;;;;;;;;;5064286;28;20025;-39
2022/09/26 00:19:11;;;;;;;1.40;1.30;;;;;;;;;;5063856;28;20028;-39
2022/09/26 00:21:37;;;;;;;1.60;1.40;;;;;;;;;;5064730;28;20024;-39
2022/09/26 00:24:04;;;;;;;1.60;1.50;;;;;;;;;;5063963;28;20107;-40
2022/09/26 00:26:31;;;;;;;1.60;1.50;;;;;;;;;;5064159;28;20060;-39
2022/09/26 00:28:57;;;;;;;2.10;1.65;;;;;;;;;;5063783;28;20509;-39
2022/09/26 00:31:25;;;;;;;1.45;1.35;;;;;;;;;;5064141;28;20403;-39
2022/09/26 00:33:52;;;;;;;1.60;1.50;;;;;;;;;;5063648;28;20058;-39
2022/09/26 00:36:18;;;;;;;1.80;1.70;;;;;;;;;;5064338;28;20024;-39
2022/09/26 00:38:45;;;;;;;1.73;1.50;;;;;;;;;;5063705;28;20025;-39
2022/09/26 00:41:11;;;;;;;1.60;1.50;;;;;;;;;;5064610;28;20427;-39
2022/09/26 00:43:38;;;;;;;1.70;1.45;;;;;;;;;;5064309;28;20028;-39
2022/09/26 00:46:27;;;;;;;1.60;1.50;;;;;;;;;;5063759;28;20051;-39
2022/09/26 00:49:02;;;;;;;1.60;1.50;;;;;;;;;;5053687;28;20056;-40
2022/09/26 00:51:29;;;;;;;1.65;1.55;;;;;;;;;;5067998;28;20166;-39
2022/09/26 00:53:55;;;;;;;1.52;1.42;;;;;;;;;;5067567;28;20044;-40
2022/09/26 00:56:28;;;;;;;1.65;1.55;;;;;;;;;;5067709;28;20033;-39
2022/09/26 00:58:57;;;;;;;1.58;1.48;;;;;;;;;;5067072;28;20040;-39
2022/09/26 01:01:23;;;;;;;1.50;1.40;;;;;;;;;;5068043;28;20102;-39
2022/09/26 01:03:49;;;;;;;1.67;1.58;;;;;;;;;;5067301;28;20523;-39
2022/09/26 01:06:17;;;;;;;1.70;1.60;;;;;;;;;;5067492;28;20082;-39
2022/09/26 01:09:07;;;;;;;2.00;1.48;;;;;;;;;;5067517;28;20035;-39
2022/09/26 01:11:35;;;;;;;1.73;1.63;;;;;;;;;;5083097;28;20028;-39
2022/09/26 01:14:01;;;;;;;1.77;1.55;;;;;;;;;;5067290;28;20031;-40
2022/09/26 01:16:27;;;;;;;1.60;1.50;;;;;;;;;;5067033;28;20126;-39
2022/09/26 01:18:54;;;;;;;1.73;1.63;;;;;;;;;;5067018;28;20021;-39
2022/09/26 01:21:39;;;;;;;1.45;1.35;;;;;;;;;;5067535;28;20031;-40
2022/09/26 01:24:16;;;;;;;1.40;1.30;;;;;;;;;;5067320;28;20077;-39
2022/09/26 01:26:57;;;;;;;1.50;1.40;;;;;;;;;;5067523;28;20029;-39
2022/09/26 01:29:42;;;;;;;1.85;1.60;;;;;;;;;;5066994;28;20389;-39
2022/09/26 01:35:30;;;;;;;1.75;1.50;;;;;;;;;;5067152;28;20027;-39
2022/09/26 01:38:00;;;;;;;;;;;;;;;;;;5067519;28;20403;-39
2022/09/26 01:40:26;;;;;;;1.80;1.70;;;;;;;;;;5067030;28;19911;-39
2022/09/26 01:42:57;;;;;;;1.52;1.42;;;;;;;;;;5066871;28;20055;-39
2022/09/26 01:45:28;;;;;;;1.70;1.60;;;;;;;;;;5082419;28;20024;-39
2022/09/26 01:47:57;;;;;;;2.00;1.80;;;;;;;;;;5066477;28;20051;-39
2022/09/26 01:50:42;;;;;;;2.17;1.98;;;;;;;;;;5066672;28;20377;-39
2022/09/26 01:53:23;;;;;;;1.73;1.63;;;;;;;;;;5067617;28;20028;-40
2022/09/26 01:55:55;;;;;;;1.85;1.75;;;;;;;;;;5066413;28;20025;-39
2022/09/26 01:58:24;;;;;;;2.13;1.80;;;;;;;;;;5066828;28;20038;-39
2022/09/26 02:00:51;;;;;;;1.63;1.52;;;;;;;;;;5065563;28;20097;-39
2022/09/26 02:03:20;;;;;;;1.90;1.80;;;;;;;;;;5066507;28;20029;-39
2022/09/26 02:05:49;;;;;;;2.22;1.90;;;;;;;;;;5066447;28;20097;-39
2022/09/26 02:08:23;;;;;;;1.75;1.65;;;;;;;;;;5077025;28;20448;-39
2022/09/26 02:10:50;;;;;;;2.08;1.88;;;;;;;;;;5087248;28;20098;-39
2022/09/26 02:13:19;;;;;;;2.20;2.00;;;;;;;;;;5074716;28;20083;-39
2022/09/26 02:15:48;;;;;;;1.92;1.80;;;;;;;;;;5066320;28;20342;-40
2022/09/26 02:18:19;;;;;;;1.58;1.48;;;;;;;;;;5066217;28;20546;-39
2022/09/26 02:20:50;;;;;;;2.90;1.90;;;;;;;;;;5065682;28;20414;-40
2022/09/26 02:23:16;;;;;;;2.05;1.85;;;;;;;;;;5064840;28;20035;-40
2022/09/26 02:25:42;;;;;;;2.15;1.95;;;;;;;;;;5066063;28;20024;-39
2022/09/26 02:28:08;;;;;;;2.40;2.20;;;;;;;;;;5065914;28;20036;-39
2022/09/26 02:30:36;;;;;;;2.20;2.00;;;;;;;;;;5065552;28;20032;-39
2022/09/26 02:33:02;;;;;;;2.60;2.20;;;;;;;;;;5065975;28;20028;-39
2022/09/26 02:38:13;;;;;;;1.98;1.85;;;;;;;;;;5065746;28;20062;-39
2022/09/26 02:40:59;;;;;;;2.10;1.90;;;;;;;;;;5065432;28;20020;-39
2022/09/26 02:43:28;;;;;;;2.20;2.00;;;;;;;;;;5065868;28;20048;-39
2022/09/26 02:46:04;;;;;;;2.72;2.15;;;;;;;;;;5065908;28;20407;-39
2022/09/26 02:48:48;;;;;;;2.17;1.90;;;;;;;;;;5065693;28;20032;-39
2022/09/26 02:51:20;;;;;;;2.13;1.92;;;;;;;;;;5065317;28;20082;-39
2022/09/26 02:54:04;;;;;;;2.10;1.90;;;;;;;;;;5065276;28;20643;-39
2022/09/26 02:56:55;;;;;;;2.55;2.15;;;;;;;;;;5065723;28;20027;-39
2022/09/26 02:59:27;;;;;;;2.30;2.10;;;;;;;;;;5065968;28;20575;-39
2022/09/26 03:01:56;;;;;;;2.92;2.45;;;;;;;;;;5065399;28;20444;-39
2022/09/26 03:04:41;;;;;;;2.33;2.13;;;;;;;;;;5065985;28;20035;-39
2022/09/26 03:07:11;;;;;;;2.30;2.10;;;;;;;;;;5065472;28;20032;-39
2022/09/26 03:09:38;;;;;;;2.10;2.00;;;;;;;;;;5065049;28;20082;-39
2022/09/26 03:12:06;;;;;;;2.67;2.20;;;;;;;;;;5064180;28;20111;-39
2022/09/26 03:14:33;;;;;;;2.75;2.30;;;;;;;;;;5064948;28;20024;-39
2022/09/26 03:17:00;;;;;;;2.50;2.30;;;;;;;;;;5065624;28;20111;-39
2022/09/26 03:19:33;;;;;;;2.50;2.30;;;;;;;;;;5065091;28;20040;-39
2022/09/26 03:22:01;;;;;;;3.15;2.50;;;;;;;;;;5065101;28;20033;-39
2022/09/26 03:24:27;;;;;;;2.47;2.25;;;;;;;;;;5064973;28;20099;-39
2022/09/26 03:26:54;;;;;;;2.53;2.33;;;;;;;;;;5065214;28;20039;-39
2022/09/26 03:29:20;;;;;;;2.95;2.65;;;;;;;;;;5065417;28;20028;-39
2022/09/26 03:31:49;;;;;;;2.88;2.60;;;;;;;;;;5064556;28;20579;-39
2022/09/26 03:34:16;;;;;;;2.78;2.53;;;;;;;;;;5064474;28;20035;-39
2022/09/26 03:36:42;;;;;;;2.65;2.45;;;;;;;;;;5064665;28;20024;-39
2022/09/26 03:39:08;;;;;;;2.60;2.40;;;;;;;;;;5064614;28;20031;-39
2022/09/26 03:41:34;;;;;;;2.40;2.20;;;;;;;;;;5064357;28;20020;-39
2022/09/26 03:44:01;;;;;;;2.47;2.25;;;;;;;;;;5064382;28;20029;-39
2022/09/26 03:46:27;;;;;;;3.70;2.72;;;;;;;;;;5064236;28;20270;-39
2022/09/26 03:48:53;;;;;;;2.70;2.50;;;;;;;;;;5064984;28;20056;-39
2022/09/26 03:51:19;;;;;;;3.38;3.00;;;;;;;;;;5064349;28;20242;-39
2022/09/26 03:53:46;;;;;;;3.67;2.95;;;;;;;;;;5064105;28;20032;-39
2022/09/26 03:56:13;;;;;;;3.03;2.42;;;;;;;;;;5063980;28;20070;-39
2022/09/26 03:58:40;;;;;;;3.03;2.72;;;;;;;;;;5064128;28;20439;-39
2022/09/26 04:01:16;;;;;;;2.67;2.40;;;;;;;;;;5064009;28;20028;-39
2022/09/26 04:03:43;;;;;;;3.08;2.65;;;;;;;;;;5064163;28;20093;-39
2022/09/26 04:06:09;;;;;;;2.17;1.98;;;;;;;;;;5064165;28;20031;-39
2022/09/26 04:08:36;;;;;;;2.92;2.33;;;;;;;;;;5062618;28;20393;-39
2022/09/26 04:11:03;;;;;;;2.53;2.33;;;;;;;;;;5063991;28;20544;-39
2022/09/26 04:13:31;;;;;;;2.40;2.20;;;;;;;;;;5065190;28;20031;-39
2022/09/26 04:15:57;;;;;;;2.58;2.33;;;;;;;;;;5064701;28;20024;-39
2022/09/26 04:18:24;;;;;;;3.78;3.08;;;;;;;;;;5065767;28;20058;-39
2022/09/26 04:20:55;;;;;;;2.60;2.40;;;;;;;;;;5065193;28;20021;-39
2022/09/26 04:23:21;;;;;;;3.38;3.05;;;;;;;;;;5065597;28;20063;-39
2022/09/26 04:25:47;;;;;;;2.65;2.45;;;;;;;;;;5064298;28;20535;-39
2022/09/26 04:28:15;;;;;;;3.08;2.78;;;;;;;;;;5064755;28;20040;-39
2022/09/26 04:30:41;;;;;;;2.80;2.60;;;;;;;;;;5064458;28;20094;-39
2022/09/26 04:33:07;;;;;;;3.40;3.10;;;;;;;;;;5064732;28;20036;-39
2022/09/26 04:35:33;;;;;;;3.33;3.03;;;;;;;;;;5064610;28;20017;-39
2022/09/26 04:37:59;;;;;;;2.75;2.55;;;;;;;;;;5064995;28;20403;-39
2022/09/26 04:40:25;;;;;;;2.97;2.67;;;;;;;;;;5064676;28;20031;-39
2022/09/26 04:42:51;;;;;;;3.13;2.78;;;;;;;;;;5065305;28;20032;-39
2022/09/26 04:45:17;;;;;;;2.80;2.35;;;;;;;;;;5064515;28;20295;-39
2022/09/26 04:47:43;;;;;;;3.28;2.90;;;;;;;;;;5064257;28;20411;-39
2022/09/26 04:50:09;;;;;;;3.08;2.78;;;;;;;;;;5064437;28;20074;-40
2022/09/26 04:52:35;;;;;;;3.30;3.00;;;;;;;;;;5064211;28;20020;-39
2022/09/26 04:55:02;;;;;;;2.83;2.47;;;;;;;;;;5064675;28;20549;-39
2022/09/26 04:57:29;;;;;;;2.45;2.25;;;;;;;;;;5065176;28;20099;-39
2022/09/26 04:59:56;;;;;;;2.60;2.40;;;;;;;;;;5078898;28;20047;-39
2022/09/26 05:02:22;;;;;;;2.47;2.28;;;;;;;;;;5065517;28;20535;-39
2022/09/26 05:04:50;;;;;;;3.08;2.72;;;;;;;;;;5073579;28;20115;-39
2022/09/26 05:07:17;;;;;;;2.90;2.60;;;;;;;;;;5085999;28;20491;-39
2022/09/26 05:09:43;;;;;;;2.60;2.40;;;;;;;;;;5084595;28;20024;-39
2022/09/26 05:12:11;;;;;;;3.25;2.88;;;;;;;;;;5085675;28;20454;-39
2022/09/26 05:14:37;;;;;;;3.53;2.80;;;;;;;;;;5085415;28;20046;-39
2022/09/26 05:17:03;;;;;;;3.50;2.97;;;;;;;;;;5069812;28;20603;-39
2022/09/26 05:19:30;;;;;;;2.88;2.58;;;;;;;;;;5064761;28;20034;-39
2022/09/26 05:21:57;;;;;;;2.92;2.63;;;;;;;;;;5064461;28;20021;-39
2022/09/26 05:27:08;;;;;;;3.65;3.15;;;;;;;;;;5064626;28;20071;-40
2022/09/26 05:29:34;;;;;;;3.33;2.97;;;;;;;;;;5065056;28;20028;-39
2022/09/26 05:32:00;;;;;;;3.15;2.85;;;;;;;;;;5065627;28;20029;-39
2022/09/26 05:34:26;;;;;;;2.97;2.67;;;;;;;;;;5065715;28;20035;-39
2022/09/26 05:36:52;;;;;;;3.00;2.40;;;;;;;;;;5087163;28;20083;-39
2022/09/26 05:42:07;;;;;;;3.60;2.78;;;;;;;;;;5089694;28;20145;-39
2022/09/26 05:44:33;;;;;;;3.67;3.00;;;;;;;;;;5087540;28;20024;-39
2022/09/26 05:47:00;;;;;;;4.13;3.17;;;;;;;;;;5087745;28;20024;-39
2022/09/26 05:49:26;;;;;;;3.33;3.03;;;;;;;;;;5087135;28;20072;-39
2022/09/26 05:51:53;;;;;;;3.72;3.10;;;;;;;;;;5088041;28;20039;-39
2022/09/26 05:54:19;;;;;;;4.57;3.35;;;;;;;;;;5087399;28;20062;-39
2022/09/26 05:56:47;;;;;;;4.00;3.28;;;;;;;;;;5087512;28;20052;-39
2022/09/26 05:59:13;;;;;;;3.80;3.38;;;;;;;;;;5087121;28;20564;-39
2022/09/26 06:01:40;;;;;;;4.53;3.95;;;;;;;;;;5086965;28;20032;-39
2022/09/26 06:04:06;;;;;;;2.92;2.63;;;;;;;;;;5083143;28;20459;-39
2022/09/26 06:06:32;;;;;;;3.63;3.08;;;;;;;;;;5083141;28;20060;-39
2022/09/26 06:08:59;;;;;;;3.63;3.10;;;;;;;;;;5086293;28;20078;-39
2022/09/26 06:11:29;;;;;;;3.88;3.35;;;;;;;;;;5086184;28;20020;-39
2022/09/26 06:13:59;;;;;;;3.25;2.88;;;;;;;;;;5080005;28;20020;-39
2022/09/26 06:16:25;;;;;;;3.63;3.33;;;;;;;;;;5079482;28;20025;-39
2022/09/26 06:18:54;;;;;;;3.78;3.35;;;;;;;;;;5068989;28;20033;-39
2022/09/26 06:21:20;;;;;;;3.92;3.45;;;;;;;;;;5068402;28;20033;-39
2022/09/26 06:23:46;;;;;;;4.40;3.60;;;;;;;;;;5068181;28;20029;-39
2022/09/26 06:26:19;;;;;;;4.10;3.50;;;;;;;;;;5067370;28;20036;-39
2022/09/26 06:28:46;;;;;;;3.55;3.10;;;;;;;;;;5066097;28;20549;-39
2022/09/26 06:31:13;;;;;;;3.50;3.20;;;;;;;;;;5066467;28;20466;-39
2022/09/26 06:33:40;;;;;;;3.55;3.10;;;;;;;;;;5066352;28;20055;-40
2022/09/26 06:36:08;;;;;;;3.95;3.33;;;;;;;;;;5066486;28;20021;-39
2022/09/26 06:38:34;;;;;;;3.85;3.33;;;;;;;;;;5066514;28;20040;-39
2022/09/26 06:41:00;;;;;;;3.17;2.78;;;;;;;;;;5066407;28;20028;-39
2022/09/26 06:43:27;;;;;;;3.50;3.20;;;;;;;;;;5066099;28;20099;-39
2022/09/26 06:45:53;;;;;;;3.28;2.92;;;;;;;;;;5066726;28;20032;-39
2022/09/26 06:48:26;;;;;;;3.63;3.22;;;;;;;;;;5066347;28;20457;-39
2022/09/26 06:50:54;;;;;;;3.95;3.30;;;;;;;;;;5066412;28;20082;-39
2022/09/26 06:53:20;;;;;;;3.60;3.00;;;;;;;;;;5066691;28;20384;-39
2022/09/26 06:55:46;;;;;;;4.03;3.10;;;;;;;;;;5065962;28;20020;-39
2022/09/26 06:58:12;;;;;;;3.88;3.47;;;;;;;;;;5065838;28;20024;-39
2022/09/26 07:00:39;;;;;;;3.42;2.88;;;;;;;;;;5065784;28;20028;-39
2022/09/26 07:03:05;;;;;;;3.38;2.90;;;;;;;;;;5065892;28;20029;-39
2022/09/26 07:05:31;;;;;;;3.42;3.08;;;;;;;;;;5065917;28;20030;-39
2022/09/26 07:07:57;;;;;;;3.95;3.45;;;;;;;;;;5065804;28;20206;-39
2022/09/26 07:10:23;;;;;;;3.55;3.20;;;;;;;;;;5072992;28;20360;-39
2022/09/26 07:12:50;;;;;;;3.67;3.05;;;;;;;;;;5085712;28;20046;-39
2022/09/26 07:15:19;;;;;;;3.53;3.13;;;;;;;;;;5086131;28;20099;-40
2022/09/26 07:17:47;;;;;;;3.72;2.97;;;;;;;;;;5085853;28;20024;-39
2022/09/26 07:20:17;;;;;;;4.00;3.53;;;;;;;;;;5085664;28;20115;-39
2022/09/26 07:22:43;;;;;;;3.53;2.80;;;;;;;;;;5085648;28;20032;-39
2022/09/26 07:25:10;;;;;;;4.13;3.40;;;;;;;;;;5085735;28;20031;-39
2022/09/26 07:27:36;;;;;;;3.55;3.25;;;;;;;;;;5085355;28;20062;-40
2022/09/26 07:30:03;;;;;;;3.40;2.97;;;;;;;;;;5085626;28;20024;-39
2022/09/26 07:32:30;;;;;;;3.90;3.20;;;;;;;;;;5085769;28;20047;-39
2022/09/26 07:34:58;;;;;;;4.13;3.30;;;;;;;;;;5085832;28;20020;-39
2022/09/26 07:37:25;;;;;;;3.75;3.17;;;;;;;;;;5086293;28;20408;-39
2022/09/26 07:39:51;;;;;;;4.03;3.38;;;;;;;;;;5085888;28;20285;-39
2022/09/26 07:42:17;;;;;;;3.22;2.92;;;;;;;;;;5085468;28;20028;-39
2022/09/26 07:44:44;;;;;;;3.47;2.70;;;;;;;;;;5085242;28;20085;-39
2022/09/26 07:50:15;;;;;;;4.60;3.38;;;;;;;;;;5085116;28;20600;-39
2022/09/26 07:52:46;;;;;;;3.45;3.08;;;;;;;;;;5085209;28;20040;-39
2022/09/26 07:55:14;;;;;;;4.25;3.28;;;;;;;;;;5085311;28;20445;-39
2022/09/26 07:57:40;;;;;;;3.63;3.10;;;;;;;;;;5084566;28;20020;-39
2022/09/26 08:00:09;;;;;;;3.78;3.40;;;;;;;;;;5084840;28;20027;-39
2022/09/26 08:02:38;;;;;;;4.22;3.40;;;;;;;;;;5084962;28;20099;-39
2022/09/26 08:05:05;;;;;;;4.50;3.17;;;;;;;;;;5084984;28;20059;-39
2022/09/26 08:07:32;;;;;;;4.05;3.28;;;;;;;;;;5083336;28;20012;-39
2022/09/26 08:10:01;;;;;;;3.90;3.42;;;;;;;;;;5086165;28;20466;-39
2022/09/26 08:12:28;;;;;;;4.10;3.25;;;;;;;;;;5072101;28;20457;-39
2022/09/26 08:14:55;;;;;;;3.17;2.85;;;;;;;;;;5064637;28;20054;-39
2022/09/26 08:17:22;;;;;;;4.35;3.60;;;;;;;;;;5064589;28;20024;-39
2022/09/26 08:19:48;;;;;;;3.92;3.40;;;;;;;;;;5064490;28;20439;-39
2022/09/26 08:22:14;;;;;;;3.58;3.17;;;;;;;;;;5064732;28;20033;-39
2022/09/26 08:24:40;;;;;;;3.45;3.15;;;;;;;;;;5064440;28;20031;-39
2022/09/26 08:27:08;;;;;;;3.45;3.13;;;;;;;;;;5064432;28;20044;-40
2022/09/26 08:29:35;;;;;;;3.53;3.08;;;;;;;;;;5064306;28;20032;-39
2022/09/26 08:32:02;;;;;;;3.08;2.70;;;;;;;;;;5064706;28;20017;-39
2022/09/26 08:34:30;;;;;;;3.15;2.85;;;;;;;;;;5065292;28;20483;-39
2022/09/26 08:36:57;;;;;;;3.10;2.67;;;;;;;;;;5065286;28;20017;-39
2022/09/26 08:39:24;;;;;;;2.95;2.65;;;;;;;;;;5064479;28;20139;-39
2022/09/26 08:41:51;;;;;;;3.63;2.78;;;;;;;;;;5064330;28;20512;-39
2022/09/26 08:44:32;;;;;;;3.75;3.10;;;;;;;;;;5064355;28;20040;-39
2022/09/26 08:47:03;;;;;;;3.05;2.75;;;;;;;;;;5065520;28;20035;-39
2022/09/26 08:49:43;;;;;;;3.00;2.67;;;;;;;;;;5062958;28;20033;-39
2022/09/26 08:52:15;;;;;;;2.60;2.38;;;;;;;;;;5065095;28;20016;-39
2022/09/26 08:54:43;;;;;;;3.70;2.70;;;;;;;;;;5064169;28;20027;-40
2022/09/26 08:57:35;;;;;;;3.20;2.90;;;;;;;;;;5064389;28;20051;-39
2022/09/26 09:00:09;;;;;;;3.20;2.90;;;;;;;;;;5062841;28;20055;-39
2022/09/26 09:02:36;;;;;;;3.25;2.60;;;;;;;;;;5064295;28;20060;-40
2022/09/26 09:05:05;;;;;;;2.95;2.65;;;;;;;;;;5064255;28;20048;-39
2022/09/26 09:07:31;;;;;;;2.58;2.38;;;;;;;;;;5064223;28;20021;-39
2022/09/26 09:10:00;;;;;;;2.45;2.25;;;;;;;;;;5064895;28;20086;-40
2022/09/26 09:12:55;;;;;;;3.50;2.60;;;;;;;;;;5068483;28;20074;-39
2022/09/26 09:15:40;;;;;;;2.90;2.60;;;;;;;;;;5047846;28;20116;-40
2022/09/26 09:18:28;;;;;;;3.17;2.88;;;;;;;;;;5068143;28;20028;-39
2022/09/26 09:21:00;;;;;;;2.63;2.42;;;;;;;;;;5056547;28;20044;-39
2022/09/26 09:23:32;;;;;;;3.00;2.70;;;;;;;;;;5068501;28;20029;-39
2022/09/26 09:26:34;;;;;;;4.15;3.47;;;;;;;;;;5068979;28;20636;-39
2022/09/26 09:29:13;;;;;;;3.03;2.72;;;;;;;;;;5044952;28;20383;-39
2022/09/26 09:31:41;;;;;;;3.22;2.78;;;;;;;;;;5064906;28;20473;-39
2022/09/26 09:34:15;;;;;;;2.70;2.50;;;;;;;;;;5068160;28;20024;-39
2022/09/26 09:36:45;;;;;;;2.45;2.25;;;;;;;;;;5067594;28;20475;-39
2022/09/26 09:39:15;;;;;;;2.50;2.30;;;;;;;;;;5067751;28;20028;-39
2022/09/26 09:41:46;;;;;;;2.33;2.13;;;;;;;;;;5067412;28;20033;-39
2022/09/26 09:44:21;;;;;;;2.30;2.10;;;;;;;;;;5067471;28;20104;-39
2022/09/26 09:46:49;;;;;;;2.53;2.33;;;;;;;;;;5067329;28;20032;-40
2022/09/26 09:49:24;;;;;;;3.90;3.13;;;;;;;;;;5067761;28;20415;-39
2022/09/26 09:51:53;;;;;;;2.83;2.58;;;;;;;;;;5067000;28;20092;-39
2022/09/26 09:54:19;;;;;;;2.72;2.45;;;;;;;;;;5067370;28;20489;-39
2022/09/26 09:57:15;;;;;;;2.83;2.53;;;;;;;;;;5067039;28;20039;-40
2022/09/26 09:59:54;;;;;;;3.50;3.03;;;;;;;;;;5046722;28;20069;-40
2022/09/26 10:02:32;;;;;;;4.18;3.78;;;;;;;;;;5075403;28;20113;-39
2022/09/26 10:05:17;;;;;;;5.72;4.00;;;;;;;;;;5077194;28;20023;-39
2022/09/26 10:07:49;;;;;;;4.30;3.33;;;;;;;;;;5084535;28;20030;-39
2022/09/26 10:10:24;;;;;;;3.30;3.00;;;;;;;;;;5076752;28;20404;-40
2022/09/26 10:12:51;;;;;;;3.13;2.83;;;;;;;;;;5086843;28;20031;-39
2022/09/26 10:15:26;;;;;;;2.83;2.50;;;;;;;;;;5087161;28;20107;-39
2022/09/26 10:18:20;;;;;;;2.22;2.03;;;;;;;;;;5086618;28;20032;-39
2022/09/26 10:20:53;;;;;;;1.90;1.70;;;;;;;;;;5085038;28;20028;-39
2022/09/26 10:23:24;;;;;;;1.98;1.77;;;;;;;;;;5083731;28;20506;-40
2022/09/26 10:25:52;;;;;;;1.60;1.50;;;;;;;;;;5085951;28;20136;-40
2022/09/26 10:28:27;;;;;;;1.70;1.60;;;;;;;;;;5087365;28;20039;-40
2022/09/26 10:30:54;;;;;;;1.65;1.55;;;;;;;;;;5083929;28;20020;-39
2022/09/26 10:33:25;;;;;;;1.75;1.60;;;;;;;;;;5077088;28;20421;-39
2022/09/26 10:35:58;;;;;;;1.73;1.63;;;;;;;;;;5085328;28;20055;-39
2022/09/26 10:38:28;;;;;;;1.98;1.88;;;;;;;;;;5104951;28;20024;-39
2022/09/26 10:40:56;;;;;;;2.40;1.77;;;;;;;;;;5087023;28;20111;-40
2022/09/26 10:43:23;;;;;;;1.88;1.67;;;;;;;;;;5088869;28;20606;-39
2022/09/26 10:45:53;;;;;;;2.70;1.55;;;;;;;;;;5086707;28;20024;-39
2022/09/26 10:48:21;;;;;;;1.65;1.55;;;;;;;;;;5088626;28;20591;-39
2022/09/26 10:50:51;;;;;;;2.28;2.08;;;;;;;;;;5085977;28;20048;-40
2022/09/26 10:53:21;;;;;;;1.50;1.40;;;;;;;;;;5090808;28;20129;-39
2022/09/26 10:55:50;;;;;;;1.20;1.10;;;;;;;;;;5084477;28;20036;-40
2022/09/26 10:58:22;;;;;;;1.42;1.30;;;;;;;;;;5074303;28;20087;-42
2022/09/26 11:00:50;;;;;;;1.15;1.05;;;;;;;;;;5084216;28;20020;-42
2022/09/26 11:03:18;;;;;;;0.98;0.90;;;;;;;;;;5074665;28;20040;-41
2022/09/26 11:05:58;;;;;;;1.30;1.20;;;;;;;;;;5084933;28;20062;-41
2022/09/26 11:08:28;;;;;;;1.27;1.17;;;;;;;;;;5086279;28;20024;-41
2022/09/26 11:10:59;;;;;;;1.30;1.20;;;;;;;;;;5081929;28;20028;-41
2022/09/26 11:13:27;;;;;;;1.50;1.25;;;;;;;;;;5086439;28;20090;-41
2022/09/26 11:16:02;;;;;;;1.33;1.23;;;;;;;;;;5084734;28;20012;-41
2022/09/26 11:18:42;;;;;;;1.65;1.30;;;;;;;;;;5085887;28;20085;-41
2022/09/26 11:21:27;;;;;;;1.25;1.15;;;;;;;;;;5082788;28;20060;-41
2022/09/26 11:24:13;;;;;;;1.30;1.20;;;;;;;;;;5084796;28;20036;-41
2022/09/26 11:26:58;;;;;;;1.00;1.00;;;;;;;;;;5085044;28;20031;-41
2022/09/26 11:29:32;;;;;;;1.38;1.27;;;;;;;;;;5077129;28;20040;-41
2022/09/26 11:31:58;;;;;;;1.23;1.05;;;;;;;;;;5085292;28;20020;-41
2022/09/26 11:34:28;;;;;;;1.20;1.10;;;;;;;;;;5082222;28;20047;-41
2022/09/26 11:37:03;;;;;;;1.38;1.20;;;;;;;;;;5083398;28;20122;-42
2022/09/26 11:39:32;;;;;;;1.48;1.38;;;;;;;;;;5079348;28;20032;-44
2022/09/26 11:41:58;;;;;;;1.33;1.23;;;;;;;;;;5081927;28;20059;-44
2022/09/26 11:44:42;;;;;;;0.85;0.85;;;;;;;;;;5077412;28;20071;-44
2022/09/26 11:47:08;;;;;;;;;;;;;;;;;;5085010;28;20027;-44
2022/09/26 11:49:44;;;;;;;1.20;1.10;;;;;;;;;;5081335;28;20417;-43
2022/09/26 11:52:29;;;;;;;1.30;1.20;;;;;;;;;;5067255;28;20029;-43
2022/09/26 11:55:07;;;;;;;1.30;1.20;;;;;;;;;;5079876;28;20046;-44
2022/09/26 11:57:39;;;;;;;1.70;1.30;;;;;;;;;;5076088;28;20549;-45
2022/09/26 12:00:14;;;;;;;0.90;0.90;;;;;;;;;;5075455;28;20032;-43
2022/09/26 12:03:02;;;;;;;0.90;0.90;;;;;;;;;;5066469;28;20032;-44
2022/09/26 12:05:47;;;;;;;1.20;1.10;;;;;;;;;;5070425;28;20050;-44
2022/09/26 12:08:34;;;;;;;1.73;1.40;;;;;;;;;;5072601;28;20032;-44
2022/09/26 12:11:19;;;;;;;1.30;1.20;;;;;;;;;;5076914;28;20514;-44
2022/09/26 12:13:46;;;;;;;1.00;1.00;;;;;;;;;;5073114;28;20077;-43
2022/09/26 12:16:20;;;;;;;1.10;1.00;;;;;;;;;;5083457;28;20052;-44
2022/09/26 12:19:04;;;;;;;1.30;1.20;;;;;;;;;;5072922;28;20084;-45
2022/09/26 12:21:30;;;;;;;1.02;1.00;;;;;;;;;;5071356;28;20078;-44
2022/09/26 12:24:11;;;;;;;1.00;1.00;;;;;;;;;;5083324;28;20031;-45
2022/09/26 12:26:42;;;;;;;0.77;0.77;;;;;;;;;;5071405;28;20024;-46
2022/09/26 12:29:20;;;;;;;0.90;0.90;;;;;;;;;;5077335;28;20479;-45
2022/09/26 12:31:53;;;;;;;0.90;0.90;;;;;;;;;;5079638;28;20391;-44
2022/09/26 12:34:19;;;;;;;0.80;0.80;;;;;;;;;;5076334;28;20551;-44
2022/09/26 12:37:01;;;;;;;0.85;0.80;;;;;;;;;;5079827;28;20098;-44
2022/09/26 12:39:46;;;;;;;1.25;0.93;;;;;;;;;;5083002;28;20036;-43
2022/09/26 12:42:31;;;;;;;0.70;0.70;;;;;;;;;;5071913;28;20439;-44
2022/09/26 12:45:06;;;;;;;1.05;0.80;;;;;;;;;;5080360;28;20570;-44
2022/09/26 12:47:44;;;;;;;0.75;0.75;;;;;;;;;;5086020;28;20388;-44
2022/09/26 12:50:23;;;;;;;0.80;0.80;;;;;;;;;;5081031;28;20107;-44
2022/09/26 12:52:49;;;;;;;0.80;0.80;;;;;;;;;;5082511;28;20056;-44
2022/09/26 12:55:18;;;;;;;1.85;1.00;;;;;;;;;;5084092;28;20063;-44
2022/09/26 12:57:44;;;;;;;1.00;1.00;;;;;;;;;;5086980;28;20497;-44
2022/09/26 13:00:20;;;;;;;0.90;0.90;;;;;;;;;;5084579;28;20020;-43
2022/09/26 13:03:06;;;;;;;1.00;0.80;;;;;;;;;;5086062;28;20059;-44
2022/09/26 13:05:51;;;;;;;1.00;0.93;;;;;;;;;;5081189;28;20028;-43
2022/09/26 13:08:25;;;;;;;0.70;0.70;;;;;;;;;;5076723;28;20051;-43
2022/09/26 13:11:00;;;;;;;0.73;0.73;;;;;;;;;;5081915;28;20526;-44
2022/09/26 13:13:29;;;;;;;0.70;0.70;;;;;;;;;;5074412;28;20024;-43
2022/09/26 13:16:11;;;;;;;1.08;1.02;;;;;;;;;;5077353;28;20033;-43
2022/09/26 13:18:44;;;;;;;1.00;0.90;;;;;;;;;;5077402;28;20134;-43
2022/09/26 13:21:13;;;;;;;0.85;0.85;;;;;;;;;;5084895;28;20028;-44
2022/09/26 13:23:52;;;;;;;0.80;0.80;;;;;;;;;;5082862;28;20036;-44
2022/09/26 13:26:24;;;;;;;0.90;0.90;;;;;;;;;;5080606;28;20040;-43
2022/09/26 13:29:02;;;;;;;0.98;0.88;;;;;;;;;;5083621;28;20089;-44
2022/09/26 13:31:36;;;;;;;0.80;0.80;;;;;;;;;;5077458;28;20589;-44
2022/09/26 13:34:05;;;;;;;0.75;0.75;;;;;;;;;;5080926;28;20028;-43
2022/09/26 13:36:32;;;;;;;0.90;0.70;;;;;;;;;;5079772;28;20103;-44
2022/09/26 13:39:02;;;;;;;1.10;1.00;;;;;;;;;;5081759;28;20728;-43
2022/09/26 13:41:28;;;;;;;2.65;1.00;;;;;;;;;;5076004;28;21341;-47
2022/09/26 13:44:03;;;;;;;1.30;1.10;;;;;;;;;;5074602;28;20035;-43
2022/09/26 13:46:29;;;;;;;1.20;0.85;;;;;;;;;;5082147;28;20024;-43
2022/09/26 13:49:05;;;;;;;1.02;0.90;;;;;;;;;;5083381;28;20552;-43
2022/09/26 13:51:39;;;;;;;0.75;0.75;;;;;;;;;;5079035;28;20027;-43
2022/09/26 13:54:17;;;;;;;0.95;0.82;;;;;;;;;;5077062;28;20517;-44
2022/09/26 13:56:47;;;;;;;1.02;0.90;;;;;;;;;;5081056;28;20048;-44
2022/09/26 13:59:14;;;;;;;2.00;0.80;;;;;;;;;;5079674;28;20041;-43
2022/09/26 14:01:58;;;;;;;1.55;0.80;;;;;;;;;;5079316;28;20028;-44
2022/09/26 14:04:34;;;;;;;1.10;0.90;;;;;;;;;;5082739;28;20540;-43
2022/09/26 14:10:00;;;;;;;0.80;0.80;;;;;;;;;;5078749;28;20038;-43
2022/09/26 14:12:49;;;;;;;0.75;0.70;;;;;;;;;;5088481;28;20028;-44
2022/09/26 14:15:27;;;;;;;0.90;0.80;;;;;;;;;;5086526;28;20112;-42
2022/09/26 14:18:12;;;;;;;0.63;0.63;;;;;;;;;;5088224;28;20016;-43
2022/09/26 14:20:49;;;;;;;1.42;0.80;;;;;;;;;;5078767;28;20046;-42
2022/09/26 14:23:34;;;;;;;0.55;0.55;;;;;;;;;;5071596;28;20028;-42
2022/09/26 14:26:07;;;;;;;0.63;0.52;;;;;;;;;;5087580;28;20453;-43
2022/09/26 14:28:35;;;;;;;0.73;0.60;;;;;;;;;;5088335;28;20060;-42
2022/09/26 14:31:31;;;;;;;0.98;0.60;;;;;;;;;;5085687;28;20454;-42
2022/09/26 14:34:09;;;;;;;0.68;0.65;;;;;;;;;;5085302;28;20036;-42
2022/09/26 14:36:36;;;;;;;0.80;0.80;;;;;;;;;;5082562;28;20024;-42
2022/09/26 14:39:04;;;;;;;1.25;0.70;;;;;;;;;;5076627;28;20032;-42
2022/09/26 14:41:32;;;;;;;0.60;0.60;;;;;;;;;;5088088;28;20024;-43
2022/09/26 14:44:03;;;;;;;0.57;0.57;;;;;;;;;;5088444;28;20507;-42
2022/09/26 14:46:31;;;;;;;0.50;0.50;;;;;;;;;;5088036;28;20053;-42
2022/09/26 14:49:05;;;;;;;0.73;0.63;;;;;;;;;;5085093;28;20089;-41
2022/09/26 14:51:33;;;;;;;0.45;0.45;;;;;;;;;;5086645;28;20028;-43
2022/09/26 14:54:04;;;;;;;1.27;0.50;;;;;;;;;;5085702;28;20032;-43
2022/09/26 14:56:36;;;;;;;1.00;0.65;;;;;;;;;;5085972;28;20035;-42
2022/09/26 14:59:21;;;;;;;0.98;0.70;;;;;;;;;;5084451;28;20028;-42
2022/09/26 15:01:47;;;;;;;1.23;0.77;;;;;;;;;;5070999;28;20248;-41
2022/09/26 15:04:27;;;;;;;1.27;0.80;;;;;;;;;;5077632;28;20028;-43
2022/09/26 15:07:15;;;;;;;0.75;0.73;;;;;;;;;;5081874;28;20036;-42
2022/09/26 15:09:47;;;;;;;0.50;0.50;;;;;;;;;;5082119;28;20020;-42
2022/09/26 15:12:16;;;;;;;0.80;0.80;;;;;;;;;;5067379;28;20555;-43
2022/09/26 15:14:42;;;;;;;0.65;0.60;;;;;;;;;;5080727;28;20404;-42
2022/09/26 15:17:22;;;;;;;1.17;0.70;;;;;;;;;;5082659;28;20093;-42
2022/09/26 15:19:51;;;;;;;0.50;0.50;;;;;;;;;;5081911;28;20028;-42
2022/09/26 15:22:23;;;;;;;0.65;0.65;;;;;;;;;;5086997;28;20071;-42
2022/09/26 15:25:06;;;;;;;0.60;0.50;;;;;;;;;;5084430;28;20036;-42